sensor_id;sensor_type;location;lat;lon;timestamp;pressure;altitude;pressure_sealevel;temperature
20058;BMP180;10189;49.546;7.906;2024-03-23T00:54:14;97346.00;;;9.70
20058;BMP180;10189;49.546;7.906;2024-03-23T00:56:40;97340.00;;;9.70
20058;BMP180;10189;49.546;7.906;2024-03-23T00:59:06;97336.00;;;9.70
20058;BMP180;10189;49.546;7.906;2024-03-23T01:01:32;97343.00;;;9.70
20058;BMP180;10189;49.546;7.906;2024-03-23T01:03:58;97336.00;;;9.70
20058;BMP180;10189;49.546;7.906;2024-03-23T01:06:25;97338.00;;;9.70
20058;BMP180;10189;49.546;7.906;2024-03-23T01:08:50;97346.00;;;9.80
20058;BMP180;10189;49.546;7.906;2024-03-23T01:11:16;97333.00;;;9.90
20058;BMP180;10189;49.546;7.906;2024-03-23T01:13:42;97334.00;;;9.90
20058;BMP180;10189;49.546;7.906;2024-03-23T01:16:08;97345.00;;;9.90
20058;BMP180;10189;49.546;7.906;2024-03-23T01:18:34;97335.00;;;9.90
20058;BMP180;10189;49.546;7.906;2024-03-23T01:21:00;97329.00;;;9.90
20058;BMP180;10189;49.546;7.906;2024-03-23T01:23:25;97325.00;;;10.00
20058;BMP180;10189;49.546;7.906;2024-03-23T01:25:54;97318.00;;;10.00
20058;BMP180;10189;49.546;7.906;2024-03-23T01:28:21;97315.00;;;10.00
20058;BMP180;10189;49.546;7.906;2024-03-23T01:30:48;97314.00;;;10.20
20058;BMP180;10189;49.546;7.906;2024-03-23T01:33:14;97308.00;;;10.50
20058;BMP180;10189;49.546;7.906;2024-03-23T01:35:40;97305.00;;;10.50
20058;BMP180;10189;49.546;7.906;2024-03-23T01:38:06;97298.00;;;10.60
20058;BMP180;10189;49.546;7.906;2024-03-23T01:40:32;97302.00;;;10.90
20058;BMP180;10189;49.546;7.906;2024-03-23T01:43:03;97294.00;;;11.00
20058;BMP180;10189;49.546;7.906;2024-03-23T01:45:30;97285.00;;;11.20
20058;BMP180;10189;49.546;7.906;2024-03-23T01:47:56;97273.00;;;11.20
20058;BMP180;10189;49.546;7.906;2024-03-23T01:50:23;97270.00;;;11.40
20058;BMP180;10189;49.546;7.906;2024-03-23T01:52:52;97267.00;;;11.60
20058;BMP180;10189;49.546;7.906;2024-03-23T01:55:18;97261.00;;;11.70
20058;BMP180;10189;49.546;7.906;2024-03-23T01:57:44;97269.00;;;11.80
20058;BMP180;10189;49.546;7.906;2024-03-23T02:00:11;97263.00;;;11.80
20058;BMP180;10189;49.546;7.906;2024-03-23T02:02:46;97254.00;;;11.70
20058;BMP180;10189;49.546;7.906;2024-03-23T02:05:13;97252.00;;;11.70
20058;BMP180;10189;49.546;7.906;2024-03-23T02:07:41;97247.00;;;11.70
20058;BMP180;10189;49.546;7.906;2024-03-23T02:10:08;97249.00;;;11.70
20058;BMP180;10189;49.546;7.906;2024-03-23T02:12:36;97245.00;;;11.80
20058;BMP180;10189;49.546;7.906;2024-03-23T02:15:03;97256.00;;;11.80
20058;BMP180;10189;49.546;7.906;2024-03-23T02:17:34;97244.00;;;11.90
20058;BMP180;10189;49.546;7.906;2024-03-23T02:20:02;97249.00;;;11.90
20058;BMP180;10189;49.546;7.906;2024-03-23T02:22:37;97230.00;;;11.80
20058;BMP180;10189;49.546;7.906;2024-03-23T02:25:05;97234.00;;;12.00
20058;BMP180;10189;49.546;7.906;2024-03-23T02:27:32;97232.00;;;12.00
20058;BMP180;10189;49.546;7.906;2024-03-23T02:29:59;97232.00;;;11.90
20058;BMP180;10189;49.546;7.906;2024-03-23T02:32:24;97239.00;;;11.90
20058;BMP180;10189;49.546;7.906;2024-03-23T02:34:50;97231.00;;;12.10
20058;BMP180;10189;49.546;7.906;2024-03-23T02:37:16;97225.00;;;12.10
20058;BMP180;10189;49.546;7.906;2024-03-23T02:39:42;97235.00;;;12.10
20058;BMP180;10189;49.546;7.906;2024-03-23T02:42:08;97226.00;;;12.20
20058;BMP180;10189;49.546;7.906;2024-03-23T02:44:34;97235.00;;;12.20
20058;BMP180;10189;49.546;7.906;2024-03-23T02:47:00;97236.00;;;12.30
20058;BMP180;10189;49.546;7.906;2024-03-23T02:49:27;97221.00;;;12.30
20058;BMP180;10189;49.546;7.906;2024-03-23T02:51:53;97201.00;;;12.30
20058;BMP180;10189;49.546;7.906;2024-03-23T02:54:19;97203.00;;;12.30
20058;BMP180;10189;49.546;7.906;2024-03-23T02:56:44;97195.00;;;12.20
20058;BMP180;10189;49.546;7.906;2024-03-23T02:59:10;97198.00;;;12.20
20058;BMP180;10189;49.546;7.906;2024-03-23T03:01:36;97215.00;;;12.20
20058;BMP180;10189;49.546;7.906;2024-03-23T03:04:02;97203.00;;;12.20
20058;BMP180;10189;49.546;7.906;2024-03-23T03:06:30;97205.00;;;12.20
20058;BMP180;10189;49.546;7.906;2024-03-23T03:08:56;97202.00;;;12.10
20058;BMP180;10189;49.546;7.906;2024-03-23T03:11:22;97220.00;;;12.20
20058;BMP180;10189;49.546;7.906;2024-03-23T03:13:48;97211.00;;;12.20
20058;BMP180;10189;49.546;7.906;2024-03-23T03:16:13;97216.00;;;12.20
20058;BMP180;10189;49.546;7.906;2024-03-23T03:18:40;97217.00;;;12.20
20058;BMP180;10189;49.546;7.906;2024-03-23T03:21:06;97208.00;;;12.20
20058;BMP180;10189;49.546;7.906;2024-03-23T03:23:39;97200.00;;;12.20
20058;BMP180;10189;49.546;7.906;2024-03-23T03:26:06;97202.00;;;12.20
20058;BMP180;10189;49.546;7.906;2024-03-23T03:28:32;97192.00;;;12.10
20058;BMP180;10189;49.546;7.906;2024-03-23T03:30:59;97200.00;;;12.00
20058;BMP180;10189;49.546;7.906;2024-03-23T03:33:27;97192.00;;;12.00
20058;BMP180;10189;49.546;7.906;2024-03-23T03:35:53;97198.00;;;12.00
20058;BMP180;10189;49.546;7.906;2024-03-23T03:38:20;97195.00;;;12.00
20058;BMP180;10189;49.546;7.906;2024-03-23T03:40:46;97198.00;;;12.10
20058;BMP180;10189;49.546;7.906;2024-03-23T03:43:12;97209.00;;;12.00
20058;BMP180;10189;49.546;7.906;2024-03-23T03:45:38;97194.00;;;12.10
20058;BMP180;10189;49.546;7.906;2024-03-23T03:48:04;97202.00;;;12.10
20058;BMP180;10189;49.546;7.906;2024-03-23T03:50:31;97189.00;;;12.00
20058;BMP180;10189;49.546;7.906;2024-03-23T03:52:57;97199.00;;;12.10
20058;BMP180;10189;49.546;7.906;2024-03-23T03:55:23;97208.00;;;12.10
20058;BMP180;10189;49.546;7.906;2024-03-23T03:57:48;97195.00;;;12.00
20058;BMP180;10189;49.546;7.906;2024-03-23T04:00:15;97200.00;;;12.00
20058;BMP180;10189;49.546;7.906;2024-03-23T04:02:41;97201.00;;;11.80
20058;BMP180;10189;49.546;7.906;2024-03-23T04:05:07;97207.00;;;11.80
20058;BMP180;10189;49.546;7.906;2024-03-23T04:07:34;97209.00;;;11.70
20058;BMP180;10189;49.546;7.906;2024-03-23T04:10:00;97200.00;;;11.70
20058;BMP180;10189;49.546;7.906;2024-03-23T04:12:26;97202.00;;;11.70
20058;BMP180;10189;49.546;7.906;2024-03-23T04:14:51;97199.00;;;11.50
20058;BMP180;10189;49.546;7.906;2024-03-23T04:17:18;97218.00;;;11.60
20058;BMP180;10189;49.546;7.906;2024-03-23T04:19:44;97213.00;;;11.50
20058;BMP180;10189;49.546;7.906;2024-03-23T04:22:10;97214.00;;;11.60
20058;BMP180;10189;49.546;7.906;2024-03-23T04:24:36;97219.00;;;11.50
20058;BMP180;10189;49.546;7.906;2024-03-23T04:27:02;97207.00;;;11.50
20058;BMP180;10189;49.546;7.906;2024-03-23T04:29:28;97219.00;;;11.50
20058;BMP180;10189;49.546;7.906;2024-03-23T04:31:54;97237.00;;;11.50
20058;BMP180;10189;49.546;7.906;2024-03-23T04:34:21;97238.00;;;11.50
20058;BMP180;10189;49.546;7.906;2024-03-23T04:36:48;97247.00;;;11.40
20058;BMP180;10189;49.546;7.906;2024-03-23T04:39:14;97301.00;;;11.40
20058;BMP180;10189;49.546;7.906;2024-03-23T04:41:40;97305.00;;;10.50
20058;BMP180;10189;49.546;7.906;2024-03-23T04:44:06;97313.00;;;10.20
20058;BMP180;10189;49.546;7.906;2024-03-23T04:46:33;97312.00;;;10.10
20058;BMP180;10189;49.546;7.906;2024-03-23T04:48:59;97325.00;;;9.90
20058;BMP180;10189;49.546;7.906;2024-03-23T04:51:25;97335.00;;;9.80
20058;BMP180;10189;49.546;7.906;2024-03-23T04:53:52;97336.00;;;9.80
20058;BMP180;10189;49.546;7.906;2024-03-23T04:56:18;97346.00;;;9.60
20058;BMP180;10189;49.546;7.906;2024-03-23T04:58:44;97354.00;;;9.50
20058;BMP180;10189;49.546;7.906;2024-03-23T05:01:13;97367.00;;;9.50
20058;BMP180;10189;49.546;7.906;2024-03-23T05:03:39;97363.00;;;9.50
20058;BMP180;10189;49.546;7.906;2024-03-23T05:06:06;97377.00;;;9.40
20058;BMP180;10189;49.546;7.906;2024-03-23T05:08:31;97356.00;;;9.40
20058;BMP180;10189;49.546;7.906;2024-03-23T05:10:57;97345.00;;;9.30
20058;BMP180;10189;49.546;7.906;2024-03-23T05:13:23;97354.00;;;9.30
20058;BMP180;10189;49.546;7.906;2024-03-23T05:15:55;97369.00;;;9.30
20058;BMP180;10189;49.546;7.906;2024-03-23T05:18:22;97383.00;;;9.30
20058;BMP180;10189;49.546;7.906;2024-03-23T05:20:48;97375.00;;;9.30
20058;BMP180;10189;49.546;7.906;2024-03-23T05:23:14;97373.00;;;9.30
20058;BMP180;10189;49.546;7.906;2024-03-23T05:25:41;97375.00;;;9.30
20058;BMP180;10189;49.546;7.906;2024-03-23T05:28:07;97375.00;;;9.30
20058;BMP180;10189;49.546;7.906;2024-03-23T05:30:32;97380.00;;;9.30
20058;BMP180;10189;49.546;7.906;2024-03-23T05:32:59;97380.00;;;9.30
20058;BMP180;10189;49.546;7.906;2024-03-23T05:35:24;97395.00;;;9.40
20058;BMP180;10189;49.546;7.906;2024-03-23T05:37:50;97395.00;;;9.30
20058;BMP180;10189;49.546;7.906;2024-03-23T05:40:16;97396.00;;;9.40
20058;BMP180;10189;49.546;7.906;2024-03-23T05:42:42;97404.00;;;9.40
20058;BMP180;10189;49.546;7.906;2024-03-23T05:45:08;97412.00;;;9.40
20058;BMP180;10189;49.546;7.906;2024-03-23T05:47:34;97410.00;;;9.40
20058;BMP180;10189;49.546;7.906;2024-03-23T05:50:00;97421.00;;;9.40
20058;BMP180;10189;49.546;7.906;2024-03-23T05:52:27;97416.00;;;9.40
20058;BMP180;10189;49.546;7.906;2024-03-23T05:54:53;97430.00;;;9.40
20058;BMP180;10189;49.546;7.906;2024-03-23T05:57:19;97441.00;;;9.30
20058;BMP180;10189;49.546;7.906;2024-03-23T05:59:45;97448.00;;;9.30
20058;BMP180;10189;49.546;7.906;2024-03-23T06:02:11;97455.00;;;9.30
20058;BMP180;10189;49.546;7.906;2024-03-23T06:04:37;97474.00;;;9.20
20058;BMP180;10189;49.546;7.906;2024-03-23T06:07:04;97475.00;;;9.20
20058;BMP180;10189;49.546;7.906;2024-03-23T06:09:32;97482.00;;;9.20
20058;BMP180;10189;49.546;7.906;2024-03-23T06:11:58;97476.00;;;9.20
20058;BMP180;10189;49.546;7.906;2024-03-23T06:14:24;97460.00;;;9.10
20058;BMP180;10189;49.546;7.906;2024-03-23T06:16:50;97470.00;;;9.10
20058;BMP180;10189;49.546;7.906;2024-03-23T06:19:16;97487.00;;;9.10
20058;BMP180;10189;49.546;7.906;2024-03-23T06:21:45;97492.00;;;9.10
20058;BMP180;10189;49.546;7.906;2024-03-23T06:24:11;97487.00;;;9.20
20058;BMP180;10189;49.546;7.906;2024-03-23T06:26:38;97490.00;;;9.20
20058;BMP180;10189;49.546;7.906;2024-03-23T06:29:04;97491.00;;;9.20
20058;BMP180;10189;49.546;7.906;2024-03-23T06:31:31;97497.00;;;9.30
20058;BMP180;10189;49.546;7.906;2024-03-23T06:33:57;97495.00;;;9.30
20058;BMP180;10189;49.546;7.906;2024-03-23T06:36:23;97494.00;;;9.30
20058;BMP180;10189;49.546;7.906;2024-03-23T06:38:49;97491.00;;;9.20
20058;BMP180;10189;49.546;7.906;2024-03-23T06:41:15;97500.00;;;9.20
20058;BMP180;10189;49.546;7.906;2024-03-23T06:43:41;97496.00;;;9.30
20058;BMP180;10189;49.546;7.906;2024-03-23T06:46:07;97524.00;;;9.20
20058;BMP180;10189;49.546;7.906;2024-03-23T06:48:33;97533.00;;;9.20
20058;BMP180;10189;49.546;7.906;2024-03-23T06:50:59;97545.00;;;9.10
20058;BMP180;10189;49.546;7.906;2024-03-23T06:53:25;97528.00;;;9.20
20058;BMP180;10189;49.546;7.906;2024-03-23T06:55:52;97524.00;;;9.30
20058;BMP180;10189;49.546;7.906;2024-03-23T06:58:20;97548.00;;;9.30
20058;BMP180;10189;49.546;7.906;2024-03-23T07:00:46;97550.00;;;9.30
20058;BMP180;10189;49.546;7.906;2024-03-23T07:03:12;97564.00;;;9.40
20058;BMP180;10189;49.546;7.906;2024-03-23T07:05:38;97569.00;;;9.40
20058;BMP180;10189;49.546;7.906;2024-03-23T07:08:05;97568.00;;;9.40
20058;BMP180;10189;49.546;7.906;2024-03-23T07:10:31;97591.00;;;9.50
20058;BMP180;10189;49.546;7.906;2024-03-23T07:12:57;97588.00;;;9.40
20058;BMP180;10189;49.546;7.906;2024-03-23T07:15:22;97611.00;;;9.30
20058;BMP180;10189;49.546;7.906;2024-03-23T07:17:48;97612.00;;;9.30
20058;BMP180;10189;49.546;7.906;2024-03-23T07:20:14;97621.00;;;9.30
20058;BMP180;10189;49.546;7.906;2024-03-23T07:22:40;97627.00;;;9.30
20058;BMP180;10189;49.546;7.906;2024-03-23T07:25:07;97627.00;;;9.30
20058;BMP180;10189;49.546;7.906;2024-03-23T07:27:33;97625.00;;;9.40
20058;BMP180;10189;49.546;7.906;2024-03-23T07:29:59;97627.00;;;9.40
20058;BMP180;10189;49.546;7.906;2024-03-23T07:32:27;97629.00;;;9.50
20058;BMP180;10189;49.546;7.906;2024-03-23T07:34:53;97628.00;;;9.50
20058;BMP180;10189;49.546;7.906;2024-03-23T07:37:19;97632.00;;;9.50
20058;BMP180;10189;49.546;7.906;2024-03-23T07:39:45;97617.00;;;9.60
20058;BMP180;10189;49.546;7.906;2024-03-23T07:42:10;97635.00;;;9.70
20058;BMP180;10189;49.546;7.906;2024-03-23T07:44:36;97621.00;;;9.80
20058;BMP180;10189;49.546;7.906;2024-03-23T07:47:03;97626.00;;;9.90
20058;BMP180;10189;49.546;7.906;2024-03-23T07:49:29;97642.00;;;10.00
20058;BMP180;10189;49.546;7.906;2024-03-23T07:51:55;97643.00;;;9.90
20058;BMP180;10189;49.546;7.906;2024-03-23T07:54:21;97646.00;;;9.70
20058;BMP180;10189;49.546;7.906;2024-03-23T07:56:47;97656.00;;;9.80
20058;BMP180;10189;49.546;7.906;2024-03-23T07:59:13;97661.00;;;9.80
20058;BMP180;10189;49.546;7.906;2024-03-23T08:01:39;97664.00;;;10.00
20058;BMP180;10189;49.546;7.906;2024-03-23T08:04:05;97661.00;;;10.10
20058;BMP180;10189;49.546;7.906;2024-03-23T08:06:31;97661.00;;;10.20
20058;BMP180;10189;49.546;7.906;2024-03-23T08:08:58;97660.00;;;10.40
20058;BMP180;10189;49.546;7.906;2024-03-23T08:11:29;97673.00;;;10.20
20058;BMP180;10189;49.546;7.906;2024-03-23T08:13:56;97659.00;;;10.10
20058;BMP180;10189;49.546;7.906;2024-03-23T08:16:22;97676.00;;;10.20
20058;BMP180;10189;49.546;7.906;2024-03-23T08:18:51;97678.00;;;10.20
20058;BMP180;10189;49.546;7.906;2024-03-23T08:21:17;97661.00;;;10.50
20058;BMP180;10189;49.546;7.906;2024-03-23T08:23:44;97662.00;;;10.60
20058;BMP180;10189;49.546;7.906;2024-03-23T08:26:13;97666.00;;;10.90
20058;BMP180;10189;49.546;7.906;2024-03-23T08:28:39;97666.00;;;10.70
20058;BMP180;10189;49.546;7.906;2024-03-23T08:31:12;97673.00;;;10.50
20058;BMP180;10189;49.546;7.906;2024-03-23T08:33:39;97671.00;;;10.60
20058;BMP180;10189;49.546;7.906;2024-03-23T08:36:08;97664.00;;;10.50
20058;BMP180;10189;49.546;7.906;2024-03-23T08:38:34;97661.00;;;10.80
20058;BMP180;10189;49.546;7.906;2024-03-23T08:41:08;97666.00;;;10.80
20058;BMP180;10189;49.546;7.906;2024-03-23T08:43:39;97672.00;;;10.60
20058;BMP180;10189;49.546;7.906;2024-03-23T08:46:13;97673.00;;;10.90
20058;BMP180;10189;49.546;7.906;2024-03-23T08:48:44;97683.00;;;10.80
20058;BMP180;10189;49.546;7.906;2024-03-23T08:51:13;97684.00;;;10.80
20058;BMP180;10189;49.546;7.906;2024-03-23T08:53:40;97677.00;;;11.10
20058;BMP180;10189;49.546;7.906;2024-03-23T08:56:07;97684.00;;;11.20
20058;BMP180;10189;49.546;7.906;2024-03-23T08:58:36;97676.00;;;11.60
20058;BMP180;10189;49.546;7.906;2024-03-23T09:03:35;97679.00;;;11.60
20058;BMP180;10189;49.546;7.906;2024-03-23T09:06:13;97674.00;;;11.90
20058;BMP180;10189;49.546;7.906;2024-03-23T09:08:40;97686.00;;;11.40
20058;BMP180;10189;49.546;7.906;2024-03-23T09:11:09;97693.00;;;11.50
20058;BMP180;10189;49.546;7.906;2024-03-23T09:13:36;97687.00;;;11.70
20058;BMP180;10189;49.546;7.906;2024-03-23T09:16:03;97682.00;;;11.90
20058;BMP180;10189;49.546;7.906;2024-03-23T09:18:35;97671.00;;;12.30
20058;BMP180;10189;49.546;7.906;2024-03-23T09:21:12;97677.00;;;12.20
20058;BMP180;10189;49.546;7.906;2024-03-23T09:23:44;97676.00;;;12.20
20058;BMP180;10189;49.546;7.906;2024-03-23T09:26:10;97672.00;;;12.30
20058;BMP180;10189;49.546;7.906;2024-03-23T09:28:37;97673.00;;;12.20
20058;BMP180;10189;49.546;7.906;2024-03-23T09:31:07;97663.00;;;12.30
20058;BMP180;10189;49.546;7.906;2024-03-23T09:33:36;97666.00;;;12.80
20058;BMP180;10189;49.546;7.906;2024-03-23T09:36:06;97669.00;;;12.50
20058;BMP180;10189;49.546;7.906;2024-03-23T09:38:33;97671.00;;;12.60
20058;BMP180;10189;49.546;7.906;2024-03-23T09:40:59;97676.00;;;12.70
20058;BMP180;10189;49.546;7.906;2024-03-23T09:43:26;97677.00;;;12.80
20058;BMP180;10189;49.546;7.906;2024-03-23T09:45:53;97684.00;;;12.00
20058;BMP180;10189;49.546;7.906;2024-03-23T09:48:19;97694.00;;;12.10
20058;BMP180;10189;49.546;7.906;2024-03-23T09:50:46;97691.00;;;12.00
20058;BMP180;10189;49.546;7.906;2024-03-23T09:53:13;97699.00;;;12.10
20058;BMP180;10189;49.546;7.906;2024-03-23T09:55:44;97691.00;;;12.20
20058;BMP180;10189;49.546;7.906;2024-03-23T09:58:18;97697.00;;;12.60
20058;BMP180;10189;49.546;7.906;2024-03-23T10:00:44;97692.00;;;12.30
20058;BMP180;10189;49.546;7.906;2024-03-23T10:03:11;97685.00;;;12.30
20058;BMP180;10189;49.546;7.906;2024-03-23T10:05:37;97693.00;;;12.00
20058;BMP180;10189;49.546;7.906;2024-03-23T10:08:21;97692.00;;;12.60
20058;BMP180;10189;49.546;7.906;2024-03-23T10:10:48;97686.00;;;12.60
20058;BMP180;10189;49.546;7.906;2024-03-23T10:13:28;97683.00;;;12.40
20058;BMP180;10189;49.546;7.906;2024-03-23T10:15:58;97679.00;;;12.10
20058;BMP180;10189;49.546;7.906;2024-03-23T10:18:26;97685.00;;;12.20
20058;BMP180;10189;49.546;7.906;2024-03-23T10:23:34;97672.00;;;11.90
20058;BMP180;10189;49.546;7.906;2024-03-23T10:26:19;97666.00;;;12.60
20058;BMP180;10189;49.546;7.906;2024-03-23T10:28:57;97655.00;;;13.30
20058;BMP180;10189;49.546;7.906;2024-03-23T10:31:30;97666.00;;;13.00
20058;BMP180;10189;49.546;7.906;2024-03-23T10:33:57;97668.00;;;12.70
20058;BMP180;10189;49.546;7.906;2024-03-23T10:36:24;97680.00;;;12.20
20058;BMP180;10189;49.546;7.906;2024-03-23T10:38:54;97665.00;;;12.20
20058;BMP180;10189;49.546;7.906;2024-03-23T10:41:21;97669.00;;;12.20
20058;BMP180;10189;49.546;7.906;2024-03-23T10:43:48;97655.00;;;12.00
20058;BMP180;10189;49.546;7.906;2024-03-23T10:46:15;97656.00;;;11.90
20058;BMP180;10189;49.546;7.906;2024-03-23T10:48:42;97657.00;;;11.90
20058;BMP180;10189;49.546;7.906;2024-03-23T10:51:10;97662.00;;;11.80
20058;BMP180;10189;49.546;7.906;2024-03-23T10:53:36;97677.00;;;11.40
20058;BMP180;10189;49.546;7.906;2024-03-23T10:56:06;97677.00;;;11.10
20058;BMP180;10189;49.546;7.906;2024-03-23T10:58:46;97685.00;;;11.00
20058;BMP180;10189;49.546;7.906;2024-03-23T11:01:13;97687.00;;;11.20
20058;BMP180;10189;49.546;7.906;2024-03-23T11:03:45;97691.00;;;11.30
20058;BMP180;10189;49.546;7.906;2024-03-23T11:06:36;97699.00;;;11.40
20058;BMP180;10189;49.546;7.906;2024-03-23T11:09:02;97695.00;;;11.70
20058;BMP180;10189;49.546;7.906;2024-03-23T11:11:28;97691.00;;;11.90
20058;BMP180;10189;49.546;7.906;2024-03-23T11:13:59;97695.00;;;12.10
20058;BMP180;10189;49.546;7.906;2024-03-23T11:16:29;97694.00;;;11.80
20058;BMP180;10189;49.546;7.906;2024-03-23T11:19:38;97684.00;;;11.90
20058;BMP180;10189;49.546;7.906;2024-03-23T11:22:05;97682.00;;;11.70
20058;BMP180;10189;49.546;7.906;2024-03-23T11:24:32;97686.00;;;11.90
20058;BMP180;10189;49.546;7.906;2024-03-23T11:26:58;97679.00;;;12.10
20058;BMP180;10189;49.546;7.906;2024-03-23T11:29:30;97683.00;;;12.00
20058;BMP180;10189;49.546;7.906;2024-03-23T11:31:56;97683.00;;;12.20
20058;BMP180;10189;49.546;7.906;2024-03-23T11:34:22;97682.00;;;12.60
20058;BMP180;10189;49.546;7.906;2024-03-23T11:36:48;97674.00;;;12.30
20058;BMP180;10189;49.546;7.906;2024-03-23T11:39:20;97682.00;;;11.90
20058;BMP180;10189;49.546;7.906;2024-03-23T11:41:51;97685.00;;;11.70
20058;BMP180;10189;49.546;7.906;2024-03-23T11:44:27;97708.00;;;11.10
20058;BMP180;10189;49.546;7.906;2024-03-23T11:46:53;97711.00;;;10.90
20058;BMP180;10189;49.546;7.906;2024-03-23T11:49:24;97723.00;;;10.20
20058;BMP180;10189;49.546;7.906;2024-03-23T11:51:52;97737.00;;;10.00
20058;BMP180;10189;49.546;7.906;2024-03-23T11:54:26;97724.00;;;9.50
20058;BMP180;10189;49.546;7.906;2024-03-23T11:57:08;97714.00;;;9.60
20058;BMP180;10189;49.546;7.906;2024-03-23T11:59:38;97728.00;;;10.10
20058;BMP180;10189;49.546;7.906;2024-03-23T12:02:10;97722.00;;;10.30
20058;BMP180;10189;49.546;7.906;2024-03-23T12:04:41;97717.00;;;10.30
20058;BMP180;10189;49.546;7.906;2024-03-23T12:07:16;97718.00;;;10.40
20058;BMP180;10189;49.546;7.906;2024-03-23T12:09:46;97722.00;;;10.60
20058;BMP180;10189;49.546;7.906;2024-03-23T12:12:18;97731.00;;;10.80
20058;BMP180;10189;49.546;7.906;2024-03-23T12:14:45;97752.00;;;10.00
20058;BMP180;10189;49.546;7.906;2024-03-23T12:17:26;97762.00;;;9.70
20058;BMP180;10189;49.546;7.906;2024-03-23T12:19:52;97753.00;;;9.50
20058;BMP180;10189;49.546;7.906;2024-03-23T12:22:22;97756.00;;;9.20
20058;BMP180;10189;49.546;7.906;2024-03-23T12:24:49;97757.00;;;9.40
20058;BMP180;10189;49.546;7.906;2024-03-23T12:27:15;97740.00;;;9.50
20058;BMP180;10189;49.546;7.906;2024-03-23T12:29:42;97742.00;;;9.60
20058;BMP180;10189;49.546;7.906;2024-03-23T12:32:15;97740.00;;;9.60
20058;BMP180;10189;49.546;7.906;2024-03-23T12:34:42;97736.00;;;10.00
20058;BMP180;10189;49.546;7.906;2024-03-23T12:37:08;97730.00;;;10.20
20058;BMP180;10189;49.546;7.906;2024-03-23T12:39:38;97719.00;;;10.40
20058;BMP180;10189;49.546;7.906;2024-03-23T12:42:04;97729.00;;;10.50
20058;BMP180;10189;49.546;7.906;2024-03-23T12:44:30;97713.00;;;10.90
20058;BMP180;10189;49.546;7.906;2024-03-23T12:46:56;97698.00;;;11.20
20058;BMP180;10189;49.546;7.906;2024-03-23T12:49:22;97702.00;;;11.30
20058;BMP180;10189;49.546;7.906;2024-03-23T12:51:56;97696.00;;;11.20
20058;BMP180;10189;49.546;7.906;2024-03-23T12:54:23;97693.00;;;11.70
20058;BMP180;10189;49.546;7.906;2024-03-23T12:56:49;97674.00;;;11.90
20058;BMP180;10189;49.546;7.906;2024-03-23T12:59:15;97681.00;;;12.10
20058;BMP180;10189;49.546;7.906;2024-03-23T13:01:42;97671.00;;;12.10
20058;BMP180;10189;49.546;7.906;2024-03-23T13:04:09;97665.00;;;11.80
20058;BMP180;10189;49.546;7.906;2024-03-23T13:06:35;97672.00;;;11.70
20058;BMP180;10189;49.546;7.906;2024-03-23T13:09:02;97662.00;;;11.70
20058;BMP180;10189;49.546;7.906;2024-03-23T13:11:30;97666.00;;;11.50
20058;BMP180;10189;49.546;7.906;2024-03-23T13:13:56;97653.00;;;11.60
20058;BMP180;10189;49.546;7.906;2024-03-23T13:16:22;97662.00;;;11.50
20058;BMP180;10189;49.546;7.906;2024-03-23T13:18:48;97650.00;;;11.30
20058;BMP180;10189;49.546;7.906;2024-03-23T13:21:14;97639.00;;;11.40
20058;BMP180;10189;49.546;7.906;2024-03-23T13:23:40;97643.00;;;11.90
20058;BMP180;10189;49.546;7.906;2024-03-23T13:26:08;97643.00;;;12.00
20058;BMP180;10189;49.546;7.906;2024-03-23T13:28:34;97641.00;;;12.10
20058;BMP180;10189;49.546;7.906;2024-03-23T13:31:02;97627.00;;;11.60
20058;BMP180;10189;49.546;7.906;2024-03-23T13:33:31;97645.00;;;11.30
20058;BMP180;10189;49.546;7.906;2024-03-23T13:35:58;97658.00;;;11.00
20058;BMP180;10189;49.546;7.906;2024-03-23T13:38:24;97679.00;;;10.60
20058;BMP180;10189;49.546;7.906;2024-03-23T13:40:56;97689.00;;;10.00
20058;BMP180;10189;49.546;7.906;2024-03-23T13:43:24;97705.00;;;9.40
20058;BMP180;10189;49.546;7.906;2024-03-23T13:45:57;97691.00;;;9.10
20058;BMP180;10189;49.546;7.906;2024-03-23T13:48:26;97702.00;;;9.00
20058;BMP180;10189;49.546;7.906;2024-03-23T13:51:03;97683.00;;;8.90
20058;BMP180;10189;49.546;7.906;2024-03-23T13:53:31;97698.00;;;9.00
20058;BMP180;10189;49.546;7.906;2024-03-23T13:55:58;97691.00;;;9.50
20058;BMP180;10189;49.546;7.906;2024-03-23T13:58:24;97683.00;;;9.60
20058;BMP180;10189;49.546;7.906;2024-03-23T14:00:53;97682.00;;;9.80
20058;BMP180;10189;49.546;7.906;2024-03-23T14:03:19;97674.00;;;9.90
20058;BMP180;10189;49.546;7.906;2024-03-23T14:05:45;97664.00;;;10.00
20058;BMP180;10189;49.546;7.906;2024-03-23T14:08:13;97654.00;;;10.20
20058;BMP180;10189;49.546;7.906;2024-03-23T14:10:42;97640.00;;;10.40
20058;BMP180;10189;49.546;7.906;2024-03-23T14:13:09;97629.00;;;10.60
20058;BMP180;10189;49.546;7.906;2024-03-23T14:15:35;97631.00;;;10.90
20058;BMP180;10189;49.546;7.906;2024-03-23T14:18:02;97631.00;;;11.00
20058;BMP180;10189;49.546;7.906;2024-03-23T14:20:29;97616.00;;;11.40
20058;BMP180;10189;49.546;7.906;2024-03-23T14:22:55;97618.00;;;11.60
20058;BMP180;10189;49.546;7.906;2024-03-23T14:25:21;97606.00;;;12.10
20058;BMP180;10189;49.546;7.906;2024-03-23T14:27:49;97605.00;;;12.50
20058;BMP180;10189;49.546;7.906;2024-03-23T14:30:15;97600.00;;;12.50
20058;BMP180;10189;49.546;7.906;2024-03-23T14:32:41;97595.00;;;12.50
20058;BMP180;10189;49.546;7.906;2024-03-23T14:35:07;97597.00;;;12.60
20058;BMP180;10189;49.546;7.906;2024-03-23T14:37:37;97597.00;;;12.60
20058;BMP180;10189;49.546;7.906;2024-03-23T14:40:08;97613.00;;;12.10
20058;BMP180;10189;49.546;7.906;2024-03-23T14:42:34;97613.00;;;12.00
20058;BMP180;10189;49.546;7.906;2024-03-23T14:45:00;97623.00;;;11.20
20058;BMP180;10189;49.546;7.906;2024-03-23T14:47:26;97613.00;;;11.00
20058;BMP180;10189;49.546;7.906;2024-03-23T14:49:52;97623.00;;;11.00
20058;BMP180;10189;49.546;7.906;2024-03-23T14:52:18;97624.00;;;10.60
20058;BMP180;10189;49.546;7.906;2024-03-23T14:54:47;97619.00;;;10.20
20058;BMP180;10189;49.546;7.906;2024-03-23T14:57:13;97631.00;;;10.30
20058;BMP180;10189;49.546;7.906;2024-03-23T14:59:39;97643.00;;;10.20
20058;BMP180;10189;49.546;7.906;2024-03-23T15:02:07;97648.00;;;10.00
20058;BMP180;10189;49.546;7.906;2024-03-23T15:04:33;97694.00;;;9.80
20058;BMP180;10189;49.546;7.906;2024-03-23T15:07:00;97719.00;;;9.30
20058;BMP180;10189;49.546;7.906;2024-03-23T15:09:26;97735.00;;;8.40
20058;BMP180;10189;49.546;7.906;2024-03-23T15:11:52;97749.00;;;8.00
20058;BMP180;10189;49.546;7.906;2024-03-23T15:14:20;97735.00;;;8.00